sensor_id;sensor_type;location;lat;lon;timestamp;P1;durP1;ratioP1;P2;durP2;ratioP2
51082;SDS011;37131;42.694;23.350;2023-11-19T00:01:16;121.10;;;40.30;;
51082;SDS011;37131;42.694;23.350;2023-11-19T00:03:42;120.17;;;39.50;;
51082;SDS011;37131;42.694;23.350;2023-11-19T00:06:07;122.77;;;40.43;;
51082;SDS011;37131;42.694;23.350;2023-11-19T00:08:34;121.13;;;40.50;;
51082;SDS011;37131;42.694;23.350;2023-11-19T00:11:00;120.87;;;39.57;;
51082;SDS011;37131;42.694;23.350;2023-11-19T00:13:26;120.77;;;39.87;;
51082;SDS011;37131;42.694;23.350;2023-11-19T00:15:51;121.37;;;39.97;;
51082;SDS011;37131;42.694;23.350;2023-11-19T00:18:17;123.63;;;40.57;;
51082;SDS011;37131;42.694;23.350;2023-11-19T00:20:43;122.20;;;40.10;;
51082;SDS011;37131;42.694;23.350;2023-11-19T00:23:09;122.87;;;41.07;;
51082;SDS011;37131;42.694;23.350;2023-11-19T00:25:35;123.67;;;42.23;;
51082;SDS011;37131;42.694;23.350;2023-11-19T00:28:00;120.13;;;40.23;;
51082;SDS011;37131;42.694;23.350;2023-11-19T00:30:26;117.20;;;39.57;;
51082;SDS011;37131;42.694;23.350;2023-11-19T00:32:51;112.33;;;38.43;;
51082;SDS011;37131;42.694;23.350;2023-11-19T00:35:16;113.90;;;39.10;;
51082;SDS011;37131;42.694;23.350;2023-11-19T00:37:42;114.30;;;39.20;;
51082;SDS011;37131;42.694;23.350;2023-11-19T00:40:08;114.70;;;38.30;;
51082;SDS011;37131;42.694;23.350;2023-11-19T00:42:35;113.07;;;38.33;;
51082;SDS011;37131;42.694;23.350;2023-11-19T00:45:00;113.10;;;38.33;;
51082;SDS011;37131;42.694;23.350;2023-11-19T00:47:26;114.47;;;38.93;;
51082;SDS011;37131;42.694;23.350;2023-11-19T00:49:51;113.93;;;38.20;;
51082;SDS011;37131;42.694;23.350;2023-11-19T00:52:17;112.70;;;37.60;;
51082;SDS011;37131;42.694;23.350;2023-11-19T00:54:43;113.20;;;37.47;;
51082;SDS011;37131;42.694;23.350;2023-11-19T00:57:09;115.33;;;38.43;;
51082;SDS011;37131;42.694;23.350;2023-11-19T00:59:34;115.17;;;38.67;;
51082;SDS011;37131;42.694;23.350;2023-11-19T01:02:00;115.17;;;38.40;;
51082;SDS011;37131;42.694;23.350;2023-11-19T01:04:35;114.90;;;38.57;;
51082;SDS011;37131;42.694;23.350;2023-11-19T01:07:01;116.27;;;38.83;;
51082;SDS011;37131;42.694;23.350;2023-11-19T01:09:31;113.00;;;37.50;;
51082;SDS011;37131;42.694;23.350;2023-11-19T01:12:03;113.00;;;37.37;;
51082;SDS011;37131;42.694;23.350;2023-11-19T01:14:29;114.27;;;37.73;;
51082;SDS011;37131;42.694;23.350;2023-11-19T01:16:55;113.90;;;38.10;;
51082;SDS011;37131;42.694;23.350;2023-11-19T01:19:23;114.70;;;38.73;;
51082;SDS011;37131;42.694;23.350;2023-11-19T01:21:49;114.47;;;38.17;;
51082;SDS011;37131;42.694;23.350;2023-11-19T01:24:15;115.03;;;38.40;;
51082;SDS011;37131;42.694;23.350;2023-11-19T01:26:41;115.00;;;37.90;;
51082;SDS011;37131;42.694;23.350;2023-11-19T01:29:13;113.93;;;37.83;;
51082;SDS011;37131;42.694;23.350;2023-11-19T01:31:42;114.83;;;38.07;;
51082;SDS011;37131;42.694;23.350;2023-11-19T01:34:08;113.70;;;37.63;;
51082;SDS011;37131;42.694;23.350;2023-11-19T01:36:34;114.57;;;38.03;;
51082;SDS011;37131;42.694;23.350;2023-11-19T01:38:59;114.60;;;38.17;;
51082;SDS011;37131;42.694;23.350;2023-11-19T01:41:27;113.90;;;38.00;;
51082;SDS011;37131;42.694;23.350;2023-11-19T01:43:52;114.33;;;38.30;;
51082;SDS011;37131;42.694;23.350;2023-11-19T01:46:19;115.73;;;38.53;;
51082;SDS011;37131;42.694;23.350;2023-11-19T01:48:45;114.13;;;37.73;;
51082;SDS011;37131;42.694;23.350;2023-11-19T01:51:12;98.47;;;35.73;;
51082;SDS011;37131;42.694;23.350;2023-11-19T01:53:38;102.60;;;36.90;;
51082;SDS011;37131;42.694;23.350;2023-11-19T01:56:06;104.03;;;36.77;;
51082;SDS011;37131;42.694;23.350;2023-11-19T01:58:38;106.33;;;37.67;;
51082;SDS011;37131;42.694;23.350;2023-11-19T02:01:05;104.77;;;36.20;;
51082;SDS011;37131;42.694;23.350;2023-11-19T02:03:32;105.80;;;37.33;;
51082;SDS011;37131;42.694;23.350;2023-11-19T02:05:58;105.90;;;36.67;;
51082;SDS011;37131;42.694;23.350;2023-11-19T02:08:24;106.00;;;36.90;;
51082;SDS011;37131;42.694;23.350;2023-11-19T02:10:51;105.50;;;36.30;;
51082;SDS011;37131;42.694;23.350;2023-11-19T02:13:17;106.17;;;36.83;;
51082;SDS011;37131;42.694;23.350;2023-11-19T02:15:43;105.53;;;36.30;;
51082;SDS011;37131;42.694;23.350;2023-11-19T02:18:21;108.90;;;37.43;;
51082;SDS011;37131;42.694;23.350;2023-11-19T02:20:48;105.63;;;36.53;;
51082;SDS011;37131;42.694;23.350;2023-11-19T02:23:14;106.43;;;36.67;;
51082;SDS011;37131;42.694;23.350;2023-11-19T02:25:42;105.93;;;36.73;;
51082;SDS011;37131;42.694;23.350;2023-11-19T02:28:10;105.80;;;36.30;;
51082;SDS011;37131;42.694;23.350;2023-11-19T02:30:38;106.13;;;36.30;;
51082;SDS011;37131;42.694;23.350;2023-11-19T02:33:03;107.10;;;36.67;;
51082;SDS011;37131;42.694;23.350;2023-11-19T02:35:30;107.10;;;37.00;;
51082;SDS011;37131;42.694;23.350;2023-11-19T02:37:57;106.73;;;36.77;;
51082;SDS011;37131;42.694;23.350;2023-11-19T02:40:25;107.03;;;36.93;;
51082;SDS011;37131;42.694;23.350;2023-11-19T02:42:54;107.07;;;36.80;;
51082;SDS011;37131;42.694;23.350;2023-11-19T02:45:22;106.47;;;36.43;;
51082;SDS011;37131;42.694;23.350;2023-11-19T02:47:48;105.30;;;36.10;;
51082;SDS011;37131;42.694;23.350;2023-11-19T02:50:13;107.27;;;36.63;;
51082;SDS011;37131;42.694;23.350;2023-11-19T02:52:42;106.87;;;36.40;;
51082;SDS011;37131;42.694;23.350;2023-11-19T02:55:08;107.30;;;36.77;;
51082;SDS011;37131;42.694;23.350;2023-11-19T02:57:40;106.77;;;36.47;;
51082;SDS011;37131;42.694;23.350;2023-11-19T03:00:20;107.63;;;36.57;;
51082;SDS011;37131;42.694;23.350;2023-11-19T03:02:49;107.77;;;37.23;;
51082;SDS011;37131;42.694;23.350;2023-11-19T03:05:24;108.57;;;37.28;;
51082;SDS011;37131;42.694;23.350;2023-11-19T03:07:50;107.50;;;36.97;;
51082;SDS011;37131;42.694;23.350;2023-11-19T03:10:16;107.00;;;36.23;;
51082;SDS011;37131;42.694;23.350;2023-11-19T03:12:42;108.20;;;36.93;;
51082;SDS011;37131;42.694;23.350;2023-11-19T03:15:08;108.03;;;37.10;;
51082;SDS011;37131;42.694;23.350;2023-11-19T03:17:41;107.73;;;37.00;;
51082;SDS011;37131;42.694;23.350;2023-11-19T03:20:08;106.37;;;36.00;;
51082;SDS011;37131;42.694;23.350;2023-11-19T03:22:39;107.67;;;36.43;;
51082;SDS011;37131;42.694;23.350;2023-11-19T03:25:06;109.63;;;37.10;;
51082;SDS011;37131;42.694;23.350;2023-11-19T03:27:33;107.03;;;36.37;;
51082;SDS011;37131;42.694;23.350;2023-11-19T03:30:03;109.00;;;36.90;;
51082;SDS011;37131;42.694;23.350;2023-11-19T03:32:30;108.57;;;36.80;;
51082;SDS011;37131;42.694;23.350;2023-11-19T03:34:57;109.47;;;37.20;;
51082;SDS011;37131;42.694;23.350;2023-11-19T03:37:25;108.47;;;36.83;;
51082;SDS011;37131;42.694;23.350;2023-11-19T03:39:51;108.23;;;36.50;;
51082;SDS011;37131;42.694;23.350;2023-11-19T03:42:18;107.87;;;36.67;;
51082;SDS011;37131;42.694;23.350;2023-11-19T03:44:44;108.70;;;36.27;;
51082;SDS011;37131;42.694;23.350;2023-11-19T03:47:09;108.80;;;36.80;;
51082;SDS011;37131;42.694;23.350;2023-11-19T03:49:35;108.57;;;37.00;;
51082;SDS011;37131;42.694;23.350;2023-11-19T03:52:00;108.33;;;36.83;;
51082;SDS011;37131;42.694;23.350;2023-11-19T03:54:26;108.70;;;37.00;;
51082;SDS011;37131;42.694;23.350;2023-11-19T03:56:52;108.33;;;37.20;;
51082;SDS011;37131;42.694;23.350;2023-11-19T03:59:18;108.67;;;36.73;;
51082;SDS011;37131;42.694;23.350;2023-11-19T04:01:45;109.13;;;36.60;;
51082;SDS011;37131;42.694;23.350;2023-11-19T04:04:11;108.13;;;36.77;;
51082;SDS011;37131;42.694;23.350;2023-11-19T04:06:36;108.23;;;36.37;;
51082;SDS011;37131;42.694;23.350;2023-11-19T04:09:01;110.10;;;37.03;;
51082;SDS011;37131;42.694;23.350;2023-11-19T04:11:27;111.40;;;38.23;;
51082;SDS011;37131;42.694;23.350;2023-11-19T04:13:53;109.37;;;36.93;;
51082;SDS011;37131;42.694;23.350;2023-11-19T04:16:18;108.87;;;36.83;;
51082;SDS011;37131;42.694;23.350;2023-11-19T04:18:43;110.23;;;37.27;;
51082;SDS011;37131;42.694;23.350;2023-11-19T04:21:11;109.60;;;37.00;;
51082;SDS011;37131;42.694;23.350;2023-11-19T04:23:36;110.40;;;36.90;;
51082;SDS011;37131;42.694;23.350;2023-11-19T04:26:02;109.60;;;37.00;;
51082;SDS011;37131;42.694;23.350;2023-11-19T04:28:31;111.83;;;38.37;;
51082;SDS011;37131;42.694;23.350;2023-11-19T04:30:57;110.43;;;37.30;;
51082;SDS011;37131;42.694;23.350;2023-11-19T04:33:22;109.53;;;37.10;;
51082;SDS011;37131;42.694;23.350;2023-11-19T04:35:47;109.90;;;36.93;;
51082;SDS011;37131;42.694;23.350;2023-11-19T04:38:13;110.13;;;37.30;;
51082;SDS011;37131;42.694;23.350;2023-11-19T04:40:38;108.30;;;36.63;;
51082;SDS011;37131;42.694;23.350;2023-11-19T04:43:03;111.07;;;36.63;;
51082;SDS011;37131;42.694;23.350;2023-11-19T04:45:29;108.67;;;37.30;;
51082;SDS011;37131;42.694;23.350;2023-11-19T04:47:54;108.90;;;36.60;;
51082;SDS011;37131;42.694;23.350;2023-11-19T04:50:20;108.40;;;36.73;;
51082;SDS011;37131;42.694;23.350;2023-11-19T04:52:45;108.63;;;36.63;;
51082;SDS011;37131;42.694;23.350;2023-11-19T04:55:12;109.03;;;37.17;;
51082;SDS011;37131;42.694;23.350;2023-11-19T04:57:39;109.47;;;37.27;;
51082;SDS011;37131;42.694;23.350;2023-11-19T05:00:04;111.10;;;37.80;;
51082;SDS011;37131;42.694;23.350;2023-11-19T05:02:30;109.23;;;36.73;;
51082;SDS011;37131;42.694;23.350;2023-11-19T05:04:56;110.53;;;37.40;;
51082;SDS011;37131;42.694;23.350;2023-11-19T05:07:21;108.70;;;36.63;;
51082;SDS011;37131;42.694;23.350;2023-11-19T05:09:47;111.03;;;38.13;;
51082;SDS011;37131;42.694;23.350;2023-11-19T05:12:12;111.47;;;37.53;;
51082;SDS011;37131;42.694;23.350;2023-11-19T05:14:38;110.00;;;36.90;;
51082;SDS011;37131;42.694;23.350;2023-11-19T05:17:03;110.77;;;37.10;;
51082;SDS011;37131;42.694;23.350;2023-11-19T05:19:29;110.80;;;36.93;;
51082;SDS011;37131;42.694;23.350;2023-11-19T05:21:54;111.57;;;37.27;;
51082;SDS011;37131;42.694;23.350;2023-11-19T05:24:20;111.87;;;37.70;;
51082;SDS011;37131;42.694;23.350;2023-11-19T05:26:45;110.13;;;36.77;;
51082;SDS011;37131;42.694;23.350;2023-11-19T05:29:11;112.63;;;37.53;;
51082;SDS011;37131;42.694;23.350;2023-11-19T05:31:37;112.10;;;37.87;;
51082;SDS011;37131;42.694;23.350;2023-11-19T05:34:03;99.83;;;35.77;;
51082;SDS011;37131;42.694;23.350;2023-11-19T05:36:29;103.07;;;36.60;;
51082;SDS011;37131;42.694;23.350;2023-11-19T05:38:54;105.63;;;36.80;;
51082;SDS011;37131;42.694;23.350;2023-11-19T05:41:20;104.10;;;36.03;;
51082;SDS011;37131;42.694;23.350;2023-11-19T05:43:45;104.93;;;36.60;;
51082;SDS011;37131;42.694;23.350;2023-11-19T05:46:11;106.33;;;37.00;;
51082;SDS011;37131;42.694;23.350;2023-11-19T05:48:38;105.80;;;36.90;;
51082;SDS011;37131;42.694;23.350;2023-11-19T05:51:03;106.70;;;37.07;;
51082;SDS011;37131;42.694;23.350;2023-11-19T05:53:30;107.77;;;37.10;;
51082;SDS011;37131;42.694;23.350;2023-11-19T05:55:56;107.77;;;37.30;;
51082;SDS011;37131;42.694;23.350;2023-11-19T05:58:25;106.63;;;36.50;;
51082;SDS011;37131;42.694;23.350;2023-11-19T06:00:54;107.03;;;36.47;;
51082;SDS011;37131;42.694;23.350;2023-11-19T06:03:20;108.30;;;37.10;;
51082;SDS011;37131;42.694;23.350;2023-11-19T06:05:46;108.97;;;37.47;;
51082;SDS011;37131;42.694;23.350;2023-11-19T06:08:12;107.90;;;36.73;;
51082;SDS011;37131;42.694;23.350;2023-11-19T06:10:41;107.90;;;36.77;;
51082;SDS011;37131;42.694;23.350;2023-11-19T06:13:07;108.73;;;37.17;;
51082;SDS011;37131;42.694;23.350;2023-11-19T06:15:35;107.50;;;36.73;;
51082;SDS011;37131;42.694;23.350;2023-11-19T06:18:00;109.83;;;38.20;;
51082;SDS011;37131;42.694;23.350;2023-11-19T06:20:27;111.00;;;38.53;;
51082;SDS011;37131;42.694;23.350;2023-11-19T06:22:55;109.33;;;37.40;;
51082;SDS011;37131;42.694;23.350;2023-11-19T06:25:21;109.23;;;37.43;;
51082;SDS011;37131;42.694;23.350;2023-11-19T06:27:48;108.97;;;37.57;;
51082;SDS011;37131;42.694;23.350;2023-11-19T06:30:14;110.27;;;38.00;;
51082;SDS011;37131;42.694;23.350;2023-11-19T06:32:40;109.43;;;38.07;;
51082;SDS011;37131;42.694;23.350;2023-11-19T06:35:05;106.97;;;36.83;;
51082;SDS011;37131;42.694;23.350;2023-11-19T06:37:31;108.37;;;37.57;;
51082;SDS011;37131;42.694;23.350;2023-11-19T06:39:56;110.47;;;38.57;;
51082;SDS011;37131;42.694;23.350;2023-11-19T06:42:22;109.10;;;37.30;;
51082;SDS011;37131;42.694;23.350;2023-11-19T06:44:47;108.07;;;36.90;;
51082;SDS011;37131;42.694;23.350;2023-11-19T06:47:12;108.30;;;37.37;;
51082;SDS011;37131;42.694;23.350;2023-11-19T06:49:38;106.13;;;36.90;;
51082;SDS011;37131;42.694;23.350;2023-11-19T06:52:03;108.93;;;37.50;;
51082;SDS011;37131;42.694;23.350;2023-11-19T06:54:29;108.53;;;37.43;;
51082;SDS011;37131;42.694;23.350;2023-11-19T06:56:56;107.47;;;37.23;;
51082;SDS011;37131;42.694;23.350;2023-11-19T06:59:22;107.70;;;36.80;;
51082;SDS011;37131;42.694;23.350;2023-11-19T07:01:48;107.73;;;36.93;;
51082;SDS011;37131;42.694;23.350;2023-11-19T07:04:13;107.77;;;37.13;;
51082;SDS011;37131;42.694;23.350;2023-11-19T07:06:39;107.63;;;37.23;;
51082;SDS011;37131;42.694;23.350;2023-11-19T07:09:06;106.87;;;36.30;;
51082;SDS011;37131;42.694;23.350;2023-11-19T07:11:37;107.03;;;36.77;;
51082;SDS011;37131;42.694;23.350;2023-11-19T07:14:04;107.87;;;37.47;;
51082;SDS011;37131;42.694;23.350;2023-11-19T07:16:30;110.97;;;38.73;;
51082;SDS011;37131;42.694;23.350;2023-11-19T07:18:56;107.70;;;36.87;;
51082;SDS011;37131;42.694;23.350;2023-11-19T07:21:21;109.60;;;37.73;;
51082;SDS011;37131;42.694;23.350;2023-11-19T07:23:46;107.97;;;37.57;;
51082;SDS011;37131;42.694;23.350;2023-11-19T07:26:12;110.30;;;38.03;;
51082;SDS011;37131;42.694;23.350;2023-11-19T07:28:37;110.20;;;37.77;;
51082;SDS011;37131;42.694;23.350;2023-11-19T07:31:04;108.00;;;36.80;;
51082;SDS011;37131;42.694;23.350;2023-11-19T07:33:32;108.40;;;37.40;;
51082;SDS011;37131;42.694;23.350;2023-11-19T07:35:58;101.37;;;35.97;;
51082;SDS011;37131;42.694;23.350;2023-11-19T07:38:24;94.63;;;35.00;;
51082;SDS011;37131;42.694;23.350;2023-11-19T07:40:49;97.43;;;35.90;;
51082;SDS011;37131;42.694;23.350;2023-11-19T07:43:14;98.80;;;36.27;;
51082;SDS011;37131;42.694;23.350;2023-11-19T07:45:40;97.77;;;35.23;;
51082;SDS011;37131;42.694;23.350;2023-11-19T07:48:09;97.33;;;35.20;;
51082;SDS011;37131;42.694;23.350;2023-11-19T07:50:36;99.43;;;36.17;;
51082;SDS011;37131;42.694;23.350;2023-11-19T07:53:01;98.90;;;35.83;;
51082;SDS011;37131;42.694;23.350;2023-11-19T07:55:29;99.27;;;35.63;;
51082;SDS011;37131;42.694;23.350;2023-11-19T07:57:55;100.40;;;36.00;;
51082;SDS011;37131;42.694;23.350;2023-11-19T08:00:20;95.80;;;35.67;;
51082;SDS011;37131;42.694;23.350;2023-11-19T08:02:46;96.43;;;35.43;;
51082;SDS011;37131;42.694;23.350;2023-11-19T08:05:11;97.37;;;36.57;;
51082;SDS011;37131;42.694;23.350;2023-11-19T08:07:37;96.83;;;35.47;;
51082;SDS011;37131;42.694;23.350;2023-11-19T08:10:02;97.67;;;36.03;;
51082;SDS011;37131;42.694;23.350;2023-11-19T08:12:30;96.37;;;35.57;;
51082;SDS011;37131;42.694;23.350;2023-11-19T08:14:56;97.80;;;35.53;;
51082;SDS011;37131;42.694;23.350;2023-11-19T08:17:23;98.43;;;35.53;;
51082;SDS011;37131;42.694;23.350;2023-11-19T08:19:49;99.53;;;35.87;;
51082;SDS011;37131;42.694;23.350;2023-11-19T08:22:14;100.13;;;36.07;;
51082;SDS011;37131;42.694;23.350;2023-11-19T08:24:41;100.50;;;35.67;;
51082;SDS011;37131;42.694;23.350;2023-11-19T08:27:07;99.83;;;35.70;;
51082;SDS011;37131;42.694;23.350;2023-11-19T08:29:32;102.23;;;37.10;;
51082;SDS011;37131;42.694;23.350;2023-11-19T08:31:59;101.30;;;35.60;;
51082;SDS011;37131;42.694;23.350;2023-11-19T08:34:27;100.67;;;36.07;;
51082;SDS011;37131;42.694;23.350;2023-11-19T08:36:52;101.83;;;36.47;;
51082;SDS011;37131;42.694;23.350;2023-11-19T08:39:20;100.90;;;35.80;;
51082;SDS011;37131;42.694;23.350;2023-11-19T08:41:46;100.30;;;35.70;;
51082;SDS011;37131;42.694;23.350;2023-11-19T08:44:13;101.73;;;36.23;;
51082;SDS011;37131;42.694;23.350;2023-11-19T08:46:39;103.23;;;37.30;;
51082;SDS011;37131;42.694;23.350;2023-11-19T08:49:05;101.97;;;36.50;;
51082;SDS011;37131;42.694;23.350;2023-11-19T08:51:33;101.57;;;36.40;;
51082;SDS011;37131;42.694;23.350;2023-11-19T08:53:58;101.80;;;35.90;;
51082;SDS011;37131;42.694;23.350;2023-11-19T08:56:24;102.30;;;36.87;;
51082;SDS011;37131;42.694;23.350;2023-11-19T08:58:49;100.53;;;36.80;;
51082;SDS011;37131;42.694;23.350;2023-11-19T09:01:14;102.73;;;36.73;;
51082;SDS011;37131;42.694;23.350;2023-11-19T09:03:40;100.83;;;36.10;;
51082;SDS011;37131;42.694;23.350;2023-11-19T09:06:05;94.43;;;35.17;;
51082;SDS011;37131;42.694;23.350;2023-11-19T09:08:31;95.73;;;35.37;;
51082;SDS011;37131;42.694;23.350;2023-11-19T09:10:56;96.00;;;35.37;;
51082;SDS011;37131;42.694;23.350;2023-11-19T09:13:22;97.10;;;35.90;;
51082;SDS011;37131;42.694;23.350;2023-11-19T09:15:48;98.40;;;35.90;;
51082;SDS011;37131;42.694;23.350;2023-11-19T09:18:13;83.27;;;33.37;;
51082;SDS011;37131;42.694;23.350;2023-11-19T09:20:38;86.43;;;34.07;;
51082;SDS011;37131;42.694;23.350;2023-11-19T09:23:05;89.50;;;34.70;;
51082;SDS011;37131;42.694;23.350;2023-11-19T09:25:31;93.07;;;35.33;;
51082;SDS011;37131;42.694;23.350;2023-11-19T09:27:59;90.40;;;34.73;;
51082;SDS011;37131;42.694;23.350;2023-11-19T09:30:24;92.20;;;35.33;;
51082;SDS011;37131;42.694;23.350;2023-11-19T09:32:49;92.33;;;35.53;;
51082;SDS011;37131;42.694;23.350;2023-11-19T09:35:15;92.10;;;35.67;;
51082;SDS011;37131;42.694;23.350;2023-11-19T09:37:41;91.37;;;35.10;;
51082;SDS011;37131;42.694;23.350;2023-11-19T09:40:09;90.87;;;34.70;;
51082;SDS011;37131;42.694;23.350;2023-11-19T09:42:42;91.33;;;34.67;;
51082;SDS011;37131;42.694;23.350;2023-11-19T09:45:15;93.03;;;35.57;;
51082;SDS011;37131;42.694;23.350;2023-11-19T09:47:45;92.13;;;34.63;;
51082;SDS011;37131;42.694;23.350;2023-11-19T09:50:17;91.80;;;34.43;;
51082;SDS011;37131;42.694;23.350;2023-11-19T09:52:44;94.47;;;36.07;;
51082;SDS011;37131;42.694;23.350;2023-11-19T09:55:10;94.17;;;35.70;;
51082;SDS011;37131;42.694;23.350;2023-11-19T09:57:40;96.07;;;36.07;;
51082;SDS011;37131;42.694;23.350;2023-11-19T10:00:09;95.73;;;36.60;;
51082;SDS011;37131;42.694;23.350;2023-11-19T10:02:36;94.60;;;35.97;;
51082;SDS011;37131;42.694;23.350;2023-11-19T10:05:07;94.33;;;36.00;;
51082;SDS011;37131;42.694;23.350;2023-11-19T10:07:37;94.67;;;36.27;;
51082;SDS011;37131;42.694;23.350;2023-11-19T10:10:03;94.27;;;35.13;;
51082;SDS011;37131;42.694;23.350;2023-11-19T10:12:30;96.57;;;35.77;;
51082;SDS011;37131;42.694;23.350;2023-11-19T10:14:57;96.03;;;35.83;;
51082;SDS011;37131;42.694;23.350;2023-11-19T10:17:27;97.33;;;36.80;;
51082;SDS011;37131;42.694;23.350;2023-11-19T10:19:54;94.23;;;35.33;;
51082;SDS011;37131;42.694;23.350;2023-11-19T10:22:21;98.53;;;36.40;;
51082;SDS011;37131;42.694;23.350;2023-11-19T10:24:47;96.37;;;36.17;;
51082;SDS011;37131;42.694;23.350;2023-11-19T10:27:13;97.73;;;36.53;;
51082;SDS011;37131;42.694;23.350;2023-11-19T10:29:39;96.80;;;35.43;;
51082;SDS011;37131;42.694;23.350;2023-11-19T10:32:05;96.27;;;35.37;;
51082;SDS011;37131;42.694;23.350;2023-11-19T10:34:31;96.53;;;35.90;;
51082;SDS011;37131;42.694;23.350;2023-11-19T10:36:56;98.30;;;36.07;;
51082;SDS011;37131;42.694;23.350;2023-11-19T10:39:22;98.30;;;36.37;;
51082;SDS011;37131;42.694;23.350;2023-11-19T10:41:49;97.47;;;35.70;;
51082;SDS011;37131;42.694;23.350;2023-11-19T10:44:30;97.80;;;35.63;;
51082;SDS011;37131;42.694;23.350;2023-11-19T10:46:58;96.77;;;35.43;;
51082;SDS011;37131;42.694;23.350;2023-11-19T10:49:24;99.63;;;36.60;;
51082;SDS011;37131;42.694;23.350;2023-11-19T10:51:54;98.23;;;36.07;;
51082;SDS011;37131;42.694;23.350;2023-11-19T10:54:22;97.93;;;35.33;;
51082;SDS011;37131;42.694;23.350;2023-11-19T10:57:01;98.00;;;35.60;;
51082;SDS011;37131;42.694;23.350;2023-11-19T10:59:28;99.00;;;35.73;;
51082;SDS011;37131;42.694;23.350;2023-11-19T11:01:56;99.80;;;36.07;;
51082;SDS011;37131;42.694;23.350;2023-11-19T11:04:25;100.17;;;35.93;;
51082;SDS011;37131;42.694;23.350;2023-11-19T11:06:56;101.95;;;36.95;;
51082;SDS011;37131;42.694;23.350;2023-11-19T11:09:25;99.53;;;36.30;;
51082;SDS011;37131;42.694;23.350;2023-11-19T11:11:55;100.90;;;36.80;;
51082;SDS011;37131;42.694;23.350;2023-11-19T11:14:22;99.27;;;36.43;;
51082;SDS011;37131;42.694;23.350;2023-11-19T11:16:49;95.87;;;35.80;;
51082;SDS011;37131;42.694;23.350;2023-11-19T11:19:15;97.30;;;36.50;;
51082;SDS011;37131;42.694;23.350;2023-11-19T11:21:42;97.07;;;36.40;;
51082;SDS011;37131;42.694;23.350;2023-11-19T11:30:18;92.70;;;35.23;;
51082;SDS011;37131;42.694;23.350;2023-11-19T11:38:04;95.57;;;36.22;;
51082;SDS011;37131;42.694;23.350;2023-11-19T11:40:34;95.53;;;36.75;;
51082;SDS011;37131;42.694;23.350;2023-11-19T11:43:01;94.50;;;36.35;;
51082;SDS011;37131;42.694;23.350;2023-11-19T11:45:37;94.55;;;37.08;;
51082;SDS011;37131;42.694;23.350;2023-11-19T11:48:10;89.38;;;35.92;;
51082;SDS011;37131;42.694;23.350;2023-11-19T11:50:53;91.50;;;36.22;;
51082;SDS011;37131;42.694;23.350;2023-11-19T11:53:25;94.55;;;36.80;;
51082;SDS011;37131;42.694;23.350;2023-11-19T11:55:54;97.25;;;37.17;;
51082;SDS011;37131;42.694;23.350;2023-11-19T11:58:21;96.30;;;37.85;;
51082;SDS011;37131;42.694;23.350;2023-11-19T12:00:51;92.10;;;36.33;;
51082;SDS011;37131;42.694;23.350;2023-11-19T12:03:21;91.82;;;36.10;;
51082;SDS011;37131;42.694;23.350;2023-11-19T12:05:52;92.47;;;36.67;;
51082;SDS011;37131;42.694;23.350;2023-11-19T12:08:24;91.60;;;35.33;;
51082;SDS011;37131;42.694;23.350;2023-11-19T12:10:53;93.13;;;36.40;;
51082;SDS011;37131;42.694;23.350;2023-11-19T12:13:23;95.00;;;37.35;;
51082;SDS011;37131;42.694;23.350;2023-11-19T12:18:26;95.03;;;35.97;;
51082;SDS011;37131;42.694;23.350;2023-11-19T12:20:55;92.63;;;36.17;;
51082;SDS011;37131;42.694;23.350;2023-11-19T12:23:24;94.13;;;36.08;;
51082;SDS011;37131;42.694;23.350;2023-11-19T12:25:50;95.72;;;36.30;;
51082;SDS011;37131;42.694;23.350;2023-11-19T12:28:18;100.10;;;37.60;;
51082;SDS011;37131;42.694;23.350;2023-11-19T12:30:44;99.60;;;37.20;;
51082;SDS011;37131;42.694;23.350;2023-11-19T12:33:14;95.60;;;37.25;;
51082;SDS011;37131;42.694;23.350;2023-11-19T12:35:43;95.43;;;37.50;;
51082;SDS011;37131;42.694;23.350;2023-11-19T12:38:19;95.57;;;38.42;;
51082;SDS011;37131;42.694;23.350;2023-11-19T12:41:05;93.43;;;38.00;;
51082;SDS011;37131;42.694;23.350;2023-11-19T12:43:32;95.07;;;40.05;;
51082;SDS011;37131;42.694;23.350;2023-11-19T12:46:01;91.68;;;37.90;;
51082;SDS011;37131;42.694;23.350;2023-11-19T12:48:27;93.78;;;39.53;;
51082;SDS011;37131;42.694;23.350;2023-11-19T12:50:55;86.72;;;36.40;;
51082;SDS011;37131;42.694;23.350;2023-11-19T12:53:26;88.88;;;36.60;;
51082;SDS011;37131;42.694;23.350;2023-11-19T12:55:54;89.22;;;37.28;;
51082;SDS011;37131;42.694;23.350;2023-11-19T13:01:25;87.13;;;36.10;;
51082;SDS011;37131;42.694;23.350;2023-11-19T13:03:49;86.85;;;35.47;;
51082;SDS011;37131;42.694;23.350;2023-11-19T13:06:16;87.05;;;36.03;;
51082;SDS011;37131;42.694;23.350;2023-11-19T13:08:42;88.50;;;36.17;;
51082;SDS011;37131;42.694;23.350;2023-11-19T13:11:15;89.32;;;36.03;;
51082;SDS011;37131;42.694;23.350;2023-11-19T13:14:02;87.97;;;35.40;;
51082;SDS011;37131;42.694;23.350;2023-11-19T13:16:36;88.13;;;36.10;;
51082;SDS011;37131;42.694;23.350;2023-11-19T13:19:04;87.90;;;35.58;;
51082;SDS011;37131;42.694;23.350;2023-11-19T13:21:30;88.47;;;36.38;;
51082;SDS011;37131;42.694;23.350;2023-11-19T13:23:56;83.95;;;34.45;;
51082;SDS011;37131;42.694;23.350;2023-11-19T13:26:21;87.15;;;35.05;;
51082;SDS011;37131;42.694;23.350;2023-11-19T13:28:50;87.70;;;35.53;;
51082;SDS011;37131;42.694;23.350;2023-11-19T13:31:16;87.75;;;34.75;;
51082;SDS011;37131;42.694;23.350;2023-11-19T13:33:42;88.50;;;35.88;;
51082;SDS011;37131;42.694;23.350;2023-11-19T13:36:12;89.07;;;36.35;;
51082;SDS011;37131;42.694;23.350;2023-11-19T13:38:37;86.85;;;35.25;;
51082;SDS011;37131;42.694;23.350;2023-11-19T13:41:05;88.88;;;35.70;;
51082;SDS011;37131;42.694;23.350;2023-11-19T13:43:31;94.85;;;37.70;;
51082;SDS011;37131;42.694;23.350;2023-11-19T13:45:56;89.68;;;36.78;;
51082;SDS011;37131;42.694;23.350;2023-11-19T13:48:23;89.60;;;37.08;;
51082;SDS011;37131;42.694;23.350;2023-11-19T13:50:49;87.82;;;36.33;;
51082;SDS011;37131;42.694;23.350;2023-11-19T13:53:15;89.68;;;36.63;;
51082;SDS011;37131;42.694;23.350;2023-11-19T13:55:43;89.80;;;36.58;;
51082;SDS011;37131;42.694;23.350;2023-11-19T13:58:09;89.93;;;37.35;;
51082;SDS011;37131;42.694;23.350;2023-11-19T14:00:35;89.88;;;37.10;;
51082;SDS011;37131;42.694;23.350;2023-11-19T14:03:03;89.57;;;36.75;;
51082;SDS011;37131;42.694;23.350;2023-11-19T14:05:28;91.18;;;37.45;;
51082;SDS011;37131;42.694;23.350;2023-11-19T14:07:54;91.00;;;37.13;;
51082;SDS011;37131;42.694;23.350;2023-11-19T14:10:23;91.97;;;38.45;;
51082;SDS011;37131;42.694;23.350;2023-11-19T14:12:49;87.70;;;36.00;;
51082;SDS011;37131;42.694;23.350;2023-11-19T14:15:15;89.38;;;36.42;;
51082;SDS011;37131;42.694;23.350;2023-11-19T14:17:43;91.47;;;37.60;;